createdAt,value
2017-11-13T00:00:00.853Z,18.75
2017-11-13T00:02:27.535Z,18.35
2017-11-13T00:04:54.138Z,16.65
2017-11-13T00:07:20.774Z,18.00
2017-11-13T00:09:47.451Z,19.83
2017-11-13T00:12:14.079Z,17.05
2017-11-13T00:14:40.722Z,16.67
2017-11-13T00:17:07.355Z,15.88
2017-11-13T00:19:33.969Z,17.08
2017-11-13T00:22:00.599Z,16.02
2017-11-13T00:24:27.219Z,16.45
2017-11-13T00:26:53.853Z,15.50
2017-11-13T00:29:20.475Z,16.65
2017-11-13T00:31:47.095Z,17.45
2017-11-13T00:34:13.727Z,16.52
2017-11-13T00:36:40.367Z,17.35
2017-11-13T00:39:07.016Z,16.23
2017-11-13T00:41:33.652Z,16.45
2017-11-13T00:44:00.299Z,15.63
2017-11-13T00:46:26.912Z,16.12
2017-11-13T00:48:53.535Z,18.00
2017-11-13T00:51:20.158Z,16.30
2017-11-13T00:53:46.771Z,16.50
2017-11-13T00:56:13.408Z,17.37
2017-11-13T00:58:40.019Z,19.42
2017-11-13T01:01:06.643Z,17.40
2017-11-13T01:03:33.275Z,14.55
2017-11-13T01:05:59.895Z,18.10
2017-11-13T01:08:26.575Z,15.35
2017-11-13T01:10:53.204Z,15.32
2017-11-13T01:13:19.827Z,16.98
2017-11-13T01:15:46.459Z,20.42
2017-11-13T01:18:13.098Z,17.90
2017-11-13T01:20:39.715Z,16.52
2017-11-13T01:23:06.418Z,16.35
2017-11-13T01:25:33.039Z,17.20
2017-11-13T01:27:59.656Z,21.15
2017-11-13T01:30:26.274Z,17.25
2017-11-13T01:32:52.973Z,16.48
2017-11-13T01:35:19.583Z,17.17
2017-11-13T01:37:46.190Z,17.00
2017-11-13T01:40:12.819Z,19.67
2017-11-13T01:42:39.523Z,16.25
2017-11-13T01:45:06.168Z,15.80
2017-11-13T01:47:32.799Z,17.02
2017-11-13T01:49:59.410Z,15.00
2017-11-13T01:52:26.036Z,19.60
2017-11-13T01:54:52.657Z,19.58
2017-11-13T01:57:19.271Z,16.67
2017-11-13T01:59:46.004Z,17.25
2017-11-13T02:02:12.641Z,16.60
2017-11-13T02:04:39.259Z,18.33
2017-11-13T02:07:05.863Z,17.20
2017-11-13T02:09:32.563Z,16.52
2017-11-13T02:11:59.179Z,20.33
2017-11-13T02:14:25.795Z,19.37
2017-11-13T02:16:52.446Z,17.73
2017-11-13T02:19:19.049Z,18.95
2017-11-13T02:21:45.667Z,17.80
2017-11-13T02:24:12.307Z,17.23
2017-11-13T02:26:38.928Z,18.30
2017-11-13T02:29:05.666Z,18.87
2017-11-13T02:31:32.300Z,19.95
2017-11-13T02:33:58.963Z,17.05
2017-11-13T02:36:25.571Z,18.92
2017-11-13T02:38:52.225Z,19.83
2017-11-13T02:41:18.847Z,20.02
2017-11-13T02:43:45.451Z,20.48
2017-11-13T02:46:12.074Z,19.15
2017-11-13T02:48:38.682Z,20.52
2017-11-13T02:51:05.300Z,19.67
2017-11-13T02:53:31.940Z,18.67
2017-11-13T02:55:58.636Z,19.27
2017-11-13T02:58:25.247Z,17.33
2017-11-13T03:00:52.529Z,17.70
2017-11-13T03:03:19.224Z,18.30
2017-11-13T03:05:45.867Z,16.77
2017-11-13T03:08:12.503Z,16.87
2017-11-13T03:10:39.116Z,19.35
2017-11-13T03:13:05.795Z,17.95
2017-11-13T03:15:32.432Z,18.35
2017-11-13T03:17:59.055Z,17.00
2017-11-13T03:20:25.708Z,14.32
2017-11-13T03:22:52.346Z,16.73
2017-11-13T03:25:18.967Z,14.80
2017-11-13T03:27:45.623Z,14.95
2017-11-13T03:30:12.419Z,15.70
2017-11-13T03:32:39.037Z,15.15
2017-11-13T03:35:05.651Z,13.03
2017-11-13T03:37:32.275Z,13.10
2017-11-13T03:39:58.894Z,13.52
2017-11-13T03:42:25.555Z,13.27
2017-11-13T03:44:52.186Z,11.47
2017-11-13T03:47:18.798Z,11.48
2017-11-13T03:49:45.418Z,13.68
2017-11-13T03:52:12.059Z,14.35
2017-11-13T03:54:38.747Z,15.00
2017-11-13T03:57:05.359Z,17.15
2017-11-13T03:59:31.990Z,14.55
2017-11-13T04:01:58.611Z,14.57
2017-11-13T04:04:25.307Z,13.68
2017-11-13T04:06:52.047Z,15.35
2017-11-13T04:09:18.675Z,14.15
2017-11-13T04:11:45.291Z,14.70
2017-11-13T04:14:11.926Z,13.35
2017-11-13T04:16:38.540Z,15.38
2017-11-13T04:19:05.159Z,15.90
2017-11-13T04:21:31.782Z,15.63
2017-11-13T04:23:58.398Z,13.15
2017-11-13T04:26:25.026Z,13.62
2017-11-13T04:28:51.646Z,14.40
2017-11-13T04:31:18.262Z,13.50
2017-11-13T04:33:44.881Z,14.23
2017-11-13T04:36:11.505Z,14.38
2017-11-13T04:38:38.127Z,13.27
2017-11-13T04:41:04.739Z,13.93
2017-11-13T04:43:31.476Z,14.85
2017-11-13T04:45:58.092Z,15.82
2017-11-13T04:48:24.712Z,14.60
2017-11-13T04:50:51.350Z,15.32
2017-11-13T04:53:17.971Z,14.80
2017-11-13T04:55:44.582Z,13.90
2017-11-13T04:58:11.215Z,15.07
2017-11-13T05:00:37.841Z,14.15
2017-11-13T05:03:04.450Z,17.05
2017-11-13T05:05:31.090Z,13.93
2017-11-13T05:07:57.708Z,13.52
2017-11-13T05:10:24.366Z,15.63
2017-11-13T05:12:50.984Z,14.48
2017-11-13T05:15:17.595Z,15.85
2017-11-13T05:17:44.222Z,15.70
2017-11-13T05:20:10.924Z,15.88
2017-11-13T05:22:37.559Z,14.68
2017-11-13T05:25:04.174Z,15.55
2017-11-13T05:27:30.793Z,15.02
2017-11-13T05:29:57.434Z,18.15
2017-11-13T05:32:24.059Z,15.70
2017-11-13T05:34:50.685Z,17.50
2017-11-13T05:37:17.325Z,16.85
2017-11-13T05:39:43.943Z,16.98
2017-11-13T05:42:10.568Z,17.23
2017-11-13T05:44:37.195Z,19.02
2017-11-13T05:47:03.812Z,17.70
2017-11-13T05:49:30.524Z,19.05
2017-11-13T05:51:57.139Z,19.77
2017-11-13T05:54:23.863Z,19.67
2017-11-13T05:56:50.482Z,18.67
2017-11-13T05:59:17.143Z,17.48
2017-11-13T06:01:43.759Z,21.92
2017-11-13T06:04:10.425Z,17.40
2017-11-13T06:06:37.039Z,16.40
2017-11-13T06:09:03.651Z,16.33
2017-11-13T06:11:30.379Z,18.37
2017-11-13T06:13:56.986Z,18.67
2017-11-13T06:16:23.631Z,16.25
2017-11-13T06:18:50.256Z,17.05
2017-11-13T06:21:16.877Z,18.12
2017-11-13T06:23:43.584Z,19.00
2017-11-13T06:26:10.195Z,18.23
2017-11-13T06:28:36.818Z,16.45
2017-11-13T06:31:03.455Z,18.37
2017-11-13T06:33:30.136Z,14.90
2017-11-13T06:35:56.747Z,16.62
2017-11-13T06:38:23.382Z,15.77
2017-11-13T06:40:50.115Z,15.52
2017-11-13T06:43:16.731Z,16.87
2017-11-13T06:45:43.387Z,21.00
2017-11-13T06:48:10.015Z,14.93
2017-11-13T06:50:37.359Z,16.60
2017-11-13T06:53:03.997Z,14.98
2017-11-13T06:55:30.621Z,15.07
2017-11-13T06:57:57.233Z,15.13
2017-11-13T07:00:23.851Z,14.30
2017-11-13T07:02:50.464Z,15.63
2017-11-13T07:05:17.079Z,14.15
2017-11-13T07:07:43.735Z,14.60
2017-11-13T07:10:10.355Z,14.13
2017-11-13T07:12:37.043Z,13.55
2017-11-13T07:15:03.686Z,15.27
2017-11-13T07:17:30.314Z,16.42
2017-11-13T07:19:56.991Z,13.68
2017-11-13T07:22:23.732Z,14.48
2017-11-13T07:24:50.339Z,16.52
2017-11-13T07:27:16.966Z,13.55
2017-11-13T07:29:43.590Z,14.35
2017-11-13T07:32:10.199Z,14.07
2017-11-13T07:34:36.930Z,13.73
2017-11-13T07:37:03.553Z,18.92
2017-11-13T07:39:30.174Z,13.00
2017-11-13T07:41:56.912Z,14.15
2017-11-13T07:44:23.530Z,14.30
2017-11-13T07:46:50.160Z,13.02
2017-11-13T07:49:16.791Z,13.35
2017-11-13T07:51:43.403Z,12.82
2017-11-13T07:54:10.108Z,14.30
2017-11-13T07:56:36.879Z,13.95
2017-11-13T07:59:03.496Z,13.07
2017-11-13T08:01:30.116Z,11.70
2017-11-13T08:03:56.775Z,12.90
2017-11-13T08:06:23.389Z,12.57
2017-11-13T08:08:50.002Z,13.77
2017-11-13T08:11:16.719Z,12.60
2017-11-13T08:13:43.423Z,11.88
2017-11-13T08:16:10.042Z,11.70
2017-11-13T08:18:36.703Z,11.23
2017-11-13T08:21:03.306Z,11.93
2017-11-13T08:23:29.916Z,9.90
2017-11-13T08:25:56.657Z,11.30
2017-11-13T08:28:23.375Z,11.00
2017-11-13T08:30:50.012Z,11.98
2017-11-13T08:33:16.631Z,10.90
2017-11-13T08:35:43.248Z,12.15
2017-11-13T08:38:09.851Z,11.12
2017-11-13T08:40:36.874Z,10.88
2017-11-13T08:43:03.496Z,12.10
2017-11-13T08:45:30.139Z,10.65
2017-11-13T08:47:56.758Z,10.50
2017-11-13T08:50:23.411Z,9.83
2017-11-13T08:52:50.034Z,11.80
2017-11-13T08:55:16.639Z,10.40
2017-11-13T08:57:43.337Z,11.65
2017-11-13T09:00:09.976Z,10.45
2017-11-13T09:02:36.589Z,9.90
2017-11-13T09:05:03.195Z,9.70
2017-11-13T09:07:29.823Z,8.68
2017-11-13T09:09:56.480Z,8.80
2017-11-13T09:12:23.078Z,8.20
2017-11-13T09:14:49.798Z,9.23
2017-11-13T09:17:16.419Z,8.40
2017-11-13T09:19:43.052Z,8.35
2017-11-13T09:22:09.646Z,9.55
2017-11-13T09:24:36.267Z,9.00
2017-11-13T09:27:02.906Z,9.82
2017-11-13T09:29:29.526Z,9.50
2017-11-13T09:31:56.141Z,9.63
2017-11-13T09:34:22.759Z,9.00
2017-11-13T09:36:49.382Z,12.20
2017-11-13T09:39:16.037Z,9.48
2017-11-13T09:41:42.650Z,9.23
2017-11-13T09:44:09.266Z,11.18
2017-11-13T09:46:35.923Z,14.05
2017-11-13T09:49:02.533Z,9.45
2017-11-13T09:51:29.142Z,7.82
2017-11-13T09:53:55.874Z,8.30
2017-11-13T09:56:22.466Z,9.20
2017-11-13T09:58:49.150Z,15.05
2017-11-13T10:01:15.776Z,11.27
2017-11-13T10:03:42.380Z,9.43
2017-11-13T10:06:09.045Z,8.10
2017-11-13T10:08:35.762Z,11.05
2017-11-13T10:11:02.366Z,7.55
2017-11-13T10:13:28.977Z,9.50
2017-11-13T10:15:55.595Z,8.85
2017-11-13T10:18:22.200Z,7.40
2017-11-13T10:20:48.802Z,8.90
2017-11-13T10:23:15.446Z,8.02
2017-11-13T10:25:42.213Z,5.50
2017-11-13T10:28:08.967Z,6.90
2017-11-13T10:30:35.786Z,6.30
2017-11-13T10:33:02.551Z,10.35
2017-11-13T10:35:29.175Z,7.55
2017-11-13T10:37:56.193Z,6.68
2017-11-13T10:40:23.640Z,5.07
2017-11-13T10:42:50.351Z,5.30
2017-11-13T10:45:18.266Z,5.80
2017-11-13T10:47:44.934Z,6.40
2017-11-13T10:50:11.596Z,6.47
2017-11-13T10:52:38.245Z,7.15
2017-11-13T10:55:05.178Z,7.05
2017-11-13T10:57:33.099Z,6.40
2017-11-13T10:59:59.810Z,6.10
2017-11-13T11:02:26.836Z,6.03
2017-11-13T11:04:53.889Z,7.00
2017-11-13T11:07:20.825Z,6.32
2017-11-13T11:09:47.621Z,7.18
2017-11-13T11:12:14.763Z,5.60
2017-11-13T11:14:43.150Z,7.03
2017-11-13T11:17:15.506Z,5.72
2017-11-13T11:19:47.699Z,6.10
2017-11-13T11:22:26.130Z,6.18
2017-11-13T11:24:52.747Z,8.90
2017-11-13T11:27:22.887Z,7.05
2017-11-13T11:30:08.258Z,6.60
2017-11-13T11:32:39.547Z,7.30
2017-11-13T11:35:17.007Z,6.35
2017-11-13T11:37:59.348Z,6.50
2017-11-13T11:40:35.967Z,9.57
2017-11-13T11:43:02.580Z,5.35
2017-11-13T11:45:35.954Z,5.40
2017-11-13T11:48:18.323Z,7.82
2017-11-13T11:50:44.960Z,5.03
2017-11-13T11:53:11.575Z,6.05
2017-11-13T11:55:43.931Z,5.25
2017-11-13T11:58:10.554Z,5.85
2017-11-13T12:00:37.163Z,5.85
2017-11-13T12:03:03.799Z,5.18
2017-11-13T12:05:30.433Z,5.28
2017-11-13T12:07:57.056Z,6.07
2017-11-13T12:10:23.656Z,4.20
2017-11-13T12:12:50.269Z,5.10
2017-11-13T12:15:16.937Z,5.40
2017-11-13T12:17:43.561Z,3.65
2017-11-13T12:20:10.250Z,4.20
2017-11-13T12:22:36.858Z,5.32
2017-11-13T12:25:03.485Z,5.65
2017-11-13T12:27:30.083Z,6.20
2017-11-13T12:29:56.708Z,6.70
2017-11-13T12:32:23.335Z,4.32
2017-11-13T12:34:49.947Z,4.70
2017-11-13T12:37:16.558Z,4.10
2017-11-13T12:39:43.223Z,7.65
2017-11-13T12:42:09.840Z,4.07
2017-11-13T12:44:36.438Z,9.00
2017-11-13T12:47:03.059Z,4.60
2017-11-13T12:49:29.683Z,11.60
2017-11-13T12:51:56.318Z,4.72
2017-11-13T12:54:22.942Z,5.87
2017-11-13T12:56:49.547Z,5.68
2017-11-13T12:59:16.167Z,5.35
2017-11-13T13:01:42.770Z,5.40
2017-11-13T13:04:09.424Z,6.40
2017-11-13T13:06:36.038Z,6.30
2017-11-13T13:09:02.651Z,5.35
2017-11-13T13:11:29.246Z,4.70
2017-11-13T13:13:55.856Z,5.00
2017-11-13T13:16:22.508Z,4.65
2017-11-13T13:18:49.127Z,5.37
2017-11-13T13:21:15.739Z,4.47
2017-11-13T13:23:42.353Z,5.93
2017-11-13T13:26:08.981Z,6.45
2017-11-13T13:28:35.590Z,4.90
2017-11-13T13:31:02.210Z,7.15
2017-11-13T13:33:28.889Z,6.65
2017-11-13T13:35:55.488Z,4.40
2017-11-13T13:38:22.126Z,4.35
2017-11-13T13:40:48.737Z,4.22
2017-11-13T13:43:15.339Z,4.78
2017-11-13T13:45:41.956Z,8.65
2017-11-13T13:48:08.615Z,5.20
2017-11-13T13:50:35.210Z,4.47
2017-11-13T13:53:01.830Z,4.62
2017-11-13T13:55:28.437Z,4.62
2017-11-13T13:57:55.059Z,6.43
2017-11-13T14:00:21.664Z,5.30
2017-11-13T14:02:48.283Z,5.47
2017-11-13T14:05:14.911Z,11.85
2017-11-13T14:07:41.524Z,6.18
2017-11-13T14:10:08.122Z,7.53
2017-11-13T14:12:34.743Z,9.50
2017-11-13T14:15:01.360Z,7.53
2017-11-13T14:17:28.016Z,6.47
2017-11-13T14:19:54.636Z,5.72
2017-11-13T14:22:21.254Z,4.87
2017-11-13T14:24:47.858Z,4.87
2017-11-13T14:27:14.480Z,8.15
2017-11-13T14:29:41.087Z,5.50
2017-11-13T14:32:07.691Z,5.30
2017-11-13T14:34:34.312Z,8.20
2017-11-13T14:37:00.983Z,11.32
2017-11-13T14:39:27.607Z,8.07
2017-11-13T14:41:54.225Z,5.82
2017-11-13T14:44:20.840Z,13.88
2017-11-13T14:46:47.463Z,11.15
2017-11-13T14:49:14.063Z,6.20
2017-11-13T14:51:40.665Z,5.72
2017-11-13T14:54:07.294Z,5.68
2017-11-13T14:56:33.895Z,5.40
2017-11-13T14:59:00.575Z,6.55
2017-11-13T15:01:27.207Z,10.65
2017-11-13T15:03:53.821Z,7.35
2017-11-13T15:06:20.447Z,6.28
2017-11-13T15:08:47.071Z,6.68
2017-11-13T15:11:13.682Z,10.43
2017-11-13T15:13:40.306Z,6.40
2017-11-13T15:16:06.902Z,7.10
2017-11-13T15:18:33.541Z,7.10
2017-11-13T15:21:00.154Z,5.87
2017-11-13T15:23:26.754Z,6.15
2017-11-13T15:25:53.351Z,7.22
2017-11-13T15:28:19.991Z,8.82
2017-11-13T15:30:46.630Z,6.95
2017-11-13T15:33:13.251Z,6.75
2017-11-13T15:35:39.918Z,6.95
2017-11-13T15:38:06.530Z,9.27
2017-11-13T15:40:33.194Z,7.50
2017-11-13T15:42:59.798Z,6.62
2017-11-13T15:45:26.406Z,6.90
2017-11-13T15:47:53.036Z,6.43
2017-11-13T15:50:19.665Z,6.22
2017-11-13T15:52:46.327Z,6.85
2017-11-13T15:55:12.951Z,7.30
2017-11-13T15:57:39.563Z,7.07
2017-11-13T16:00:06.167Z,7.62
2017-11-13T16:02:32.790Z,9.90
2017-11-13T16:04:59.393Z,7.93
2017-11-13T16:07:26.003Z,9.18
2017-11-13T16:09:52.634Z,8.57
2017-11-13T16:12:19.246Z,8.32
2017-11-13T16:14:45.938Z,8.63
2017-11-13T16:17:12.562Z,7.90
2017-11-13T16:19:39.191Z,12.93
2017-11-13T16:22:05.818Z,9.10
2017-11-13T16:24:32.447Z,11.95
2017-11-13T16:26:59.064Z,9.68
2017-11-13T16:29:25.678Z,10.30
2017-11-13T16:31:52.303Z,10.45
2017-11-13T16:34:18.923Z,9.88
2017-11-13T16:36:45.536Z,12.23
2017-11-13T16:39:12.167Z,12.95
2017-11-13T16:41:39.469Z,13.10
2017-11-13T16:44:06.117Z,14.23
2017-11-13T16:46:32.752Z,12.52
2017-11-13T16:48:59.374Z,21.33
2017-11-13T16:51:26.034Z,13.43
2017-11-13T16:53:52.669Z,20.48
2017-11-13T16:56:19.359Z,19.75
2017-11-13T16:58:46.005Z,18.08
2017-11-13T17:01:12.624Z,16.87
2017-11-13T17:03:39.269Z,20.52
2017-11-13T17:06:05.903Z,28.48
2017-11-13T17:08:32.520Z,35.28
2017-11-13T17:10:59.148Z,35.80
2017-11-13T17:13:25.797Z,20.33
2017-11-13T17:15:52.426Z,25.42
2017-11-13T17:18:19.046Z,25.40
2017-11-13T17:20:45.675Z,26.65
2017-11-13T17:23:12.301Z,18.70
2017-11-13T17:25:39.021Z,19.52
2017-11-13T17:28:05.631Z,14.68
2017-11-13T17:30:32.240Z,14.95
2017-11-13T17:32:58.877Z,34.10
2017-11-13T17:35:25.495Z,30.67
2017-11-13T17:37:52.173Z,28.92
2017-11-13T17:40:18.809Z,15.77
2017-11-13T17:42:45.423Z,17.02
2017-11-13T17:45:12.039Z,14.75
2017-11-13T17:47:38.686Z,17.00
2017-11-13T17:50:05.316Z,17.85
2017-11-13T17:52:31.928Z,19.65
2017-11-13T17:54:58.559Z,48.00
2017-11-13T17:57:25.167Z,31.92
2017-11-13T17:59:51.771Z,29.55
2017-11-13T18:02:18.460Z,20.52
2017-11-13T18:04:45.076Z,18.73
2017-11-13T18:07:11.702Z,18.15
2017-11-13T18:09:38.319Z,18.75
2017-11-13T18:12:04.937Z,24.73
2017-11-13T18:14:31.571Z,16.80
2017-11-13T18:16:58.182Z,14.98
2017-11-13T18:19:24.790Z,12.90
2017-11-13T18:21:51.431Z,12.32
2017-11-13T18:24:18.043Z,13.90
2017-11-13T18:26:44.664Z,14.50
2017-11-13T18:29:11.295Z,14.60
2017-11-13T18:31:37.913Z,15.38
2017-11-13T18:34:04.541Z,16.00
2017-11-13T18:36:31.171Z,15.82
2017-11-13T18:38:57.790Z,15.65
2017-11-13T18:41:24.438Z,21.87
2017-11-13T18:43:51.061Z,18.70
2017-11-13T18:46:17.678Z,18.90
2017-11-13T18:48:44.295Z,18.08
2017-11-13T18:51:10.935Z,19.67
2017-11-13T18:53:37.582Z,16.98
2017-11-13T18:56:04.193Z,22.33
2017-11-13T18:58:30.825Z,36.35
2017-11-13T19:00:57.427Z,46.15
2017-11-13T19:03:24.062Z,55.17
2017-11-13T19:05:50.707Z,41.83
2017-11-13T19:08:17.307Z,39.20
2017-11-13T19:10:43.934Z,28.52
2017-11-13T19:13:10.591Z,35.95
2017-11-13T19:15:37.207Z,30.42
2017-11-13T19:18:03.851Z,23.55
2017-11-13T19:20:30.462Z,34.58
2017-11-13T19:22:57.067Z,24.92
2017-11-13T19:25:23.695Z,48.90
2017-11-13T19:27:50.302Z,38.33
2017-11-13T19:30:17.001Z,25.90
2017-11-13T19:32:43.610Z,31.33
2017-11-13T19:35:10.234Z,30.40
2017-11-13T19:37:36.859Z,23.02
2017-11-13T19:40:03.528Z,25.77
2017-11-13T19:42:30.155Z,26.27
2017-11-13T19:44:56.803Z,25.88
2017-11-13T19:47:23.424Z,21.42
2017-11-13T19:49:50.062Z,22.27
2017-11-13T19:52:16.716Z,28.10
2017-11-13T19:54:43.331Z,25.08
2017-11-13T19:57:09.957Z,29.85
2017-11-13T19:59:36.567Z,33.75
2017-11-13T20:02:03.201Z,34.53
2017-11-13T20:04:29.814Z,24.17
2017-11-13T20:06:56.449Z,31.77
2017-11-13T20:09:23.226Z,45.88
2017-11-13T20:11:49.924Z,49.08
2017-11-13T20:14:16.534Z,32.72
2017-11-13T20:16:43.166Z,22.20
2017-11-13T20:19:09.794Z,22.13
2017-11-13T20:21:36.404Z,19.83
2017-11-13T20:24:03.027Z,19.52
2017-11-13T20:26:29.638Z,17.48
2017-11-13T20:28:56.258Z,16.30
2017-11-13T20:31:22.882Z,16.12
2017-11-13T20:33:49.495Z,15.38
2017-11-13T20:36:16.119Z,14.50
2017-11-13T20:38:42.732Z,16.17
2017-11-13T20:41:09.347Z,14.98
2017-11-13T20:43:35.983Z,15.85
2017-11-13T20:46:02.667Z,16.70
2017-11-13T20:48:29.298Z,17.50
2017-11-13T20:50:55.921Z,18.30
2017-11-13T20:53:22.535Z,19.17
2017-11-13T20:55:49.190Z,17.92
2017-11-13T20:58:15.870Z,17.67
2017-11-13T21:00:42.487Z,16.30
2017-11-13T21:03:09.111Z,20.23
2017-11-13T21:05:35.830Z,13.50
2017-11-13T21:08:02.443Z,14.93
2017-11-13T21:10:29.059Z,18.80
2017-11-13T21:12:55.692Z,16.80
2017-11-13T21:15:22.298Z,17.50
2017-11-13T21:17:49.790Z,15.95
2017-11-13T21:20:16.476Z,15.95
2017-11-13T21:22:43.174Z,16.98
2017-11-13T21:25:09.786Z,17.65
2017-11-13T21:27:36.414Z,17.80
2017-11-13T21:30:03.035Z,16.02
2017-11-13T21:32:29.739Z,17.58
2017-11-13T21:34:56.374Z,19.20
2017-11-13T21:37:23.019Z,17.50
2017-11-13T21:39:49.633Z,16.33
2017-11-13T21:42:16.261Z,18.25
2017-11-13T21:44:42.869Z,19.40
2017-11-13T21:47:09.563Z,20.12
2017-11-13T21:49:36.203Z,17.30
2017-11-13T21:52:02.821Z,18.35
2017-11-13T21:54:29.427Z,19.48
2017-11-13T21:56:56.061Z,20.00
2017-11-13T21:59:22.674Z,18.55
2017-11-13T22:01:49.294Z,16.60
2017-11-13T22:04:15.943Z,19.58
2017-11-13T22:06:42.620Z,19.25
2017-11-13T22:09:09.318Z,16.48
2017-11-13T22:11:36.062Z,17.20
2017-11-13T22:14:02.736Z,17.83
2017-11-13T22:16:29.446Z,17.75
2017-11-13T22:18:56.082Z,18.73
2017-11-13T22:21:22.863Z,19.48
2017-11-13T22:23:49.579Z,17.92
2017-11-13T22:26:16.306Z,18.77
2017-11-13T22:28:42.930Z,19.77
2017-11-13T22:31:09.538Z,15.45
2017-11-13T22:33:36.162Z,15.80
2017-11-13T22:36:02.792Z,16.20
2017-11-13T22:38:29.414Z,17.12
2017-11-13T22:40:56.047Z,17.35
2017-11-13T22:43:22.674Z,19.70
2017-11-13T22:45:49.288Z,25.90
2017-11-13T22:48:15.924Z,29.90
2017-11-13T22:50:42.540Z,31.80
2017-11-13T22:53:09.926Z,32.88
2017-11-13T22:55:36.569Z,31.87
2017-11-13T22:58:03.191Z,50.30
2017-11-13T23:00:29.807Z,43.10
2017-11-13T23:02:56.425Z,34.58
2017-11-13T23:05:23.045Z,39.70
2017-11-13T23:07:49.668Z,37.50
2017-11-13T23:10:16.319Z,40.63
2017-11-13T23:12:42.939Z,47.95
2017-11-13T23:15:09.547Z,36.65
2017-11-13T23:17:36.186Z,37.80
2017-11-13T23:20:02.875Z,32.80
2017-11-13T23:22:29.619Z,25.62
2017-11-13T23:24:56.243Z,26.37
2017-11-13T23:27:22.862Z,27.42
2017-11-13T23:29:49.491Z,24.10
2017-11-13T23:32:16.119Z,22.33
2017-11-13T23:34:42.734Z,28.27
2017-11-13T23:37:09.368Z,29.27
2017-11-13T23:39:36.005Z,28.33
2017-11-13T23:42:02.622Z,32.17
2017-11-13T23:44:29.251Z,32.17
2017-11-13T23:46:55.875Z,28.90
2017-11-13T23:49:22.480Z,41.75
2017-11-13T23:51:49.114Z,35.15
2017-11-13T23:54:21.679Z,29.83
2017-11-13T23:56:48.309Z,32.17
2017-11-13T23:59:14.934Z,28.65
